createdAt,value
2017-08-18T00:02:24.349Z,88.40
2017-08-18T00:04:52.710Z,88.40
2017-08-18T00:07:20.251Z,88.40
2017-08-18T00:09:47.816Z,88.60
2017-08-18T00:12:15.327Z,88.70
2017-08-18T00:14:43.686Z,88.90
2017-08-18T00:17:11.142Z,88.90
2017-08-18T00:19:38.687Z,89.00
2017-08-18T00:22:06.547Z,89.00
2017-08-18T00:24:34.009Z,89.10
2017-08-18T00:27:01.484Z,89.20
2017-08-18T00:29:29.077Z,89.30
2017-08-18T00:31:57.685Z,90.00
2017-08-18T00:34:25.294Z,89.40
2017-08-18T00:36:52.748Z,89.60
2017-08-18T00:39:20.232Z,89.60
2017-08-18T00:41:47.787Z,89.70
2017-08-18T00:44:15.323Z,89.70
2017-08-18T00:46:42.786Z,89.80
2017-08-18T00:49:10.311Z,89.80
2017-08-18T00:51:37.814Z,90.00
2017-08-18T00:54:06.406Z,90.10
2017-08-18T00:56:33.885Z,90.00
2017-08-18T00:59:01.346Z,90.10
2017-08-18T01:01:28.799Z,90.20
2017-08-18T01:03:56.490Z,90.20
2017-08-18T01:06:23.954Z,90.20
2017-08-18T01:08:51.435Z,90.20
2017-08-18T01:11:18.918Z,90.30
2017-08-18T01:13:46.373Z,90.30
2017-08-18T01:16:13.849Z,90.30
2017-08-18T01:18:41.451Z,90.30
2017-08-18T01:21:08.912Z,90.40
2017-08-18T01:23:36.364Z,90.40
2017-08-18T01:26:03.972Z,90.30
2017-08-18T01:28:31.430Z,90.40
2017-08-18T01:30:59.044Z,90.40
2017-08-18T01:33:26.539Z,90.50
2017-08-18T01:35:54.054Z,90.50
2017-08-18T01:38:21.516Z,90.50
2017-08-18T01:40:49.017Z,90.50
2017-08-18T01:43:16.495Z,90.50
2017-08-18T01:45:43.944Z,90.60
2017-08-18T01:48:11.451Z,90.70
2017-08-18T01:50:38.898Z,90.70
2017-08-18T01:53:06.389Z,90.70
2017-08-18T01:55:33.858Z,90.70
2017-08-18T01:58:01.316Z,90.60
2017-08-18T02:00:28.810Z,90.60
2017-08-18T02:02:56.337Z,90.60
2017-08-18T02:05:23.791Z,90.60
2017-08-18T02:07:51.254Z,90.50
2017-08-18T02:10:19.018Z,90.50
2017-08-18T02:12:46.470Z,90.60
2017-08-18T02:15:13.940Z,90.60
2017-08-18T02:17:41.419Z,90.50
2017-08-18T02:20:09.002Z,90.60
2017-08-18T02:22:36.543Z,90.50
2017-08-18T02:25:04.087Z,90.80
2017-08-18T02:27:31.547Z,90.60
2017-08-18T02:29:59.018Z,90.70
2017-08-18T02:32:26.490Z,90.70
2017-08-18T02:34:54.075Z,90.80
2017-08-18T02:37:21.542Z,90.70
2017-08-18T02:39:49.028Z,90.80
2017-08-18T02:42:16.505Z,90.80
2017-08-18T02:44:43.954Z,90.80
2017-08-18T02:47:11.482Z,90.70
2017-08-18T02:49:38.961Z,90.60
2017-08-18T02:52:06.417Z,90.60
2017-08-18T02:54:33.979Z,90.40
2017-08-18T02:57:01.537Z,90.30
2017-08-18T02:59:29.077Z,90.10
2017-08-18T03:01:56.618Z,89.90
2017-08-18T03:04:24.063Z,89.40
2017-08-18T03:06:51.568Z,89.00
2017-08-18T03:09:19.034Z,89.00
2017-08-18T03:11:46.528Z,88.70
2017-08-18T03:14:14.015Z,88.40
2017-08-18T03:16:41.514Z,88.00
2017-08-18T03:19:09.083Z,87.50
2017-08-18T03:21:36.699Z,88.20
2017-08-18T03:24:04.271Z,87.20
2017-08-18T03:26:31.739Z,87.10
2017-08-18T03:28:59.192Z,87.00
2017-08-18T03:31:26.660Z,86.60
2017-08-18T03:33:54.465Z,86.70
2017-08-18T03:36:21.929Z,86.80
2017-08-18T03:38:49.590Z,86.50
2017-08-18T03:41:17.185Z,86.50
2017-08-18T03:43:44.623Z,86.90
2017-08-18T03:46:12.568Z,87.40
2017-08-18T03:48:40.087Z,89.10
2017-08-18T03:51:07.585Z,89.20
2017-08-18T03:53:35.096Z,89.70
2017-08-18T03:56:02.649Z,90.20
2017-08-18T03:58:30.183Z,90.60
2017-08-18T04:00:57.731Z,90.70
2017-08-18T04:03:25.280Z,90.30
2017-08-18T04:05:52.771Z,90.60
2017-08-18T04:08:20.283Z,90.60
2017-08-18T04:10:47.787Z,90.30
2017-08-18T04:13:15.243Z,90.50
2017-08-18T04:15:42.704Z,89.80
2017-08-18T04:18:10.245Z,90.10
2017-08-18T04:20:37.713Z,90.10
2017-08-18T04:23:05.482Z,90.10
2017-08-18T04:25:33.020Z,90.20
2017-08-18T04:28:00.499Z,89.70
2017-08-18T04:30:27.986Z,89.70
2017-08-18T04:32:55.451Z,90.10
2017-08-18T04:35:23.206Z,89.50
2017-08-18T04:37:51.445Z,89.20
2017-08-18T04:40:19.115Z,89.10
2017-08-18T04:42:46.571Z,89.80
2017-08-18T04:45:14.265Z,89.40
2017-08-18T04:47:41.702Z,90.00
2017-08-18T04:50:09.158Z,90.40
2017-08-18T04:52:36.632Z,90.70
2017-08-18T04:55:04.164Z,90.80
2017-08-18T04:57:31.612Z,90.90
2017-08-18T04:59:59.086Z,91.30
2017-08-18T05:02:26.727Z,91.70
2017-08-18T05:04:54.239Z,91.90
2017-08-18T05:07:26.871Z,92.10
2017-08-18T05:09:54.423Z,91.90
2017-08-18T05:12:21.961Z,92.10
2017-08-18T05:14:49.502Z,92.20
2017-08-18T05:17:16.954Z,92.30
2017-08-18T05:19:44.425Z,92.40
2017-08-18T05:22:11.920Z,92.90
2017-08-18T05:24:39.545Z,93.00
2017-08-18T05:27:07.291Z,92.40
2017-08-18T05:29:34.803Z,94.50
2017-08-18T05:32:02.422Z,95.50
2017-08-18T05:34:30.028Z,96.20
2017-08-18T05:36:57.559Z,92.90
2017-08-18T05:39:25.034Z,92.40
2017-08-18T05:41:52.905Z,92.40
2017-08-18T05:44:20.400Z,92.40
2017-08-18T05:46:47.863Z,92.40
2017-08-18T05:49:15.345Z,92.50
2017-08-18T05:51:42.858Z,92.50
2017-08-18T05:54:10.341Z,92.30
2017-08-18T05:56:37.788Z,91.80
2017-08-18T05:59:05.799Z,91.90
2017-08-18T06:01:33.294Z,92.10
2017-08-18T06:04:00.818Z,91.60
2017-08-18T06:06:28.343Z,92.00
2017-08-18T06:08:57.343Z,91.60
2017-08-18T06:11:24.967Z,91.90
2017-08-18T06:13:52.539Z,92.20
2017-08-18T06:16:20.148Z,90.90
2017-08-18T06:18:47.630Z,91.50
2017-08-18T06:21:15.228Z,92.00
2017-08-18T06:23:42.721Z,91.30
2017-08-18T06:26:20.833Z,91.10
2017-08-18T06:28:48.336Z,91.50
2017-08-18T06:31:15.783Z,91.70
2017-08-18T06:33:43.256Z,91.90
2017-08-18T06:36:10.928Z,91.50
2017-08-18T06:38:38.436Z,91.50
2017-08-18T06:41:06.048Z,91.70
2017-08-18T06:43:33.764Z,91.90
2017-08-18T06:46:01.429Z,91.20
2017-08-18T06:48:28.906Z,91.80
2017-08-18T06:50:56.486Z,91.40
2017-08-18T06:53:23.987Z,91.00
2017-08-18T06:55:51.528Z,90.90
2017-08-18T06:58:19.002Z,90.40
2017-08-18T07:00:46.486Z,91.00
2017-08-18T07:03:13.996Z,90.90
2017-08-18T07:05:41.564Z,90.90
2017-08-18T07:08:09.044Z,90.60
2017-08-18T07:10:36.561Z,90.90
2017-08-18T07:13:04.060Z,90.60
2017-08-18T07:15:31.510Z,90.70
2017-08-18T07:17:59.093Z,90.30
2017-08-18T07:20:26.683Z,90.10
2017-08-18T07:22:54.211Z,90.30
2017-08-18T07:25:22.635Z,90.60
2017-08-18T07:27:50.187Z,90.60
2017-08-18T07:30:17.808Z,91.00
2017-08-18T07:32:45.559Z,91.00
2017-08-18T07:35:13.035Z,90.80
2017-08-18T07:37:40.570Z,90.80
2017-08-18T07:40:08.186Z,91.10
2017-08-18T07:42:35.666Z,91.10
2017-08-18T07:45:03.816Z,91.30
2017-08-18T07:47:31.423Z,91.20
2017-08-18T07:49:59.063Z,90.20
2017-08-18T07:52:26.550Z,89.40
2017-08-18T07:54:54.048Z,89.90
2017-08-18T07:57:21.591Z,88.90
2017-08-18T07:59:49.835Z,87.80
2017-08-18T08:02:17.467Z,87.90
2017-08-18T08:04:44.938Z,88.10
2017-08-18T08:07:12.481Z,87.50
2017-08-18T08:09:40.175Z,88.40
2017-08-18T08:12:07.724Z,88.30
2017-08-18T08:14:35.291Z,86.00
2017-08-18T08:17:02.777Z,86.00
2017-08-18T08:19:30.233Z,86.80
2017-08-18T08:21:57.811Z,87.10
2017-08-18T08:24:25.490Z,85.20
2017-08-18T08:26:53.071Z,84.70
2017-08-18T08:29:20.650Z,84.90
2017-08-18T08:31:48.195Z,83.80
2017-08-18T08:34:15.647Z,84.40
2017-08-18T08:36:43.104Z,84.30
2017-08-18T08:39:10.681Z,83.40
2017-08-18T08:41:38.183Z,82.30
2017-08-18T08:44:05.756Z,81.20
2017-08-18T08:46:33.598Z,81.60
2017-08-18T08:49:01.313Z,80.20
2017-08-18T08:51:28.907Z,79.70
2017-08-18T08:53:56.456Z,79.80
2017-08-18T08:56:24.002Z,79.60
2017-08-18T08:58:51.504Z,79.30
2017-08-18T09:01:19.177Z,80.40
2017-08-18T09:03:46.672Z,81.40
2017-08-18T09:06:14.242Z,81.00
2017-08-18T09:08:41.949Z,80.70
2017-08-18T09:11:09.399Z,78.10
2017-08-18T09:13:37.089Z,78.30
2017-08-18T09:16:04.662Z,77.30
2017-08-18T09:18:32.127Z,76.90
2017-08-18T09:20:59.748Z,76.10
2017-08-18T09:23:27.608Z,75.70
2017-08-18T09:25:55.063Z,74.90
2017-08-18T09:28:22.586Z,73.50
2017-08-18T09:30:50.130Z,72.90
2017-08-18T09:33:17.917Z,71.50
2017-08-18T09:35:45.459Z,70.50
2017-08-18T09:38:13.034Z,69.90
2017-08-18T09:40:40.574Z,69.60
2017-08-18T09:43:08.082Z,71.30
2017-08-18T09:45:35.605Z,72.30
2017-08-18T09:48:15.121Z,72.30
2017-08-18T09:50:54.471Z,73.30
2017-08-18T09:53:33.650Z,73.30
2017-08-18T09:56:12.804Z,72.90
2017-08-18T09:58:52.071Z,73.40
2017-08-18T10:01:19.599Z,74.30
2017-08-18T10:03:47.154Z,74.20
2017-08-18T10:06:14.716Z,73.00
2017-08-18T10:08:42.333Z,73.80
2017-08-18T10:11:09.768Z,73.30
2017-08-18T10:13:37.577Z,73.50
2017-08-18T10:16:05.093Z,73.30
2017-08-18T10:18:32.563Z,73.80
2017-08-18T10:36:43.352Z,69.20
2017-08-18T10:39:10.878Z,69.50
2017-08-18T10:41:38.504Z,68.70
2017-08-18T10:44:05.962Z,67.30
2017-08-18T10:46:33.428Z,68.60
2017-08-18T10:49:01.592Z,69.60
2017-08-18T10:51:29.063Z,71.00
2017-08-18T10:53:56.770Z,73.00
2017-08-18T10:56:24.278Z,73.90
2017-08-18T10:58:51.829Z,75.40
2017-08-18T11:01:20.119Z,76.60
2017-08-18T11:03:47.600Z,76.60
2017-08-18T11:06:15.088Z,77.40
2017-08-18T11:08:42.757Z,77.30
2017-08-18T11:11:10.338Z,78.50
2017-08-18T11:13:37.795Z,78.70
2017-08-18T11:16:05.276Z,77.20
2017-08-18T11:18:32.738Z,76.60
2017-08-18T11:21:00.267Z,76.40
2017-08-18T11:23:27.792Z,75.70
2017-08-18T11:25:55.692Z,76.80
2017-08-18T11:28:23.310Z,75.90
2017-08-18T11:30:50.816Z,74.70
2017-08-18T11:33:19.068Z,73.00
2017-08-18T11:35:46.567Z,73.10
2017-08-18T11:38:14.229Z,72.90
2017-08-18T11:40:41.725Z,72.50
2017-08-18T11:43:09.489Z,72.10
2017-08-18T11:45:36.970Z,73.20
2017-08-18T11:48:04.516Z,73.20
2017-08-18T11:50:32.124Z,74.80
2017-08-18T11:52:59.595Z,74.40
2017-08-18T11:55:27.082Z,76.80
2017-08-18T11:57:54.583Z,75.70
2017-08-18T12:00:22.106Z,77.30
2017-08-18T12:02:49.812Z,78.70
2017-08-18T12:05:17.432Z,79.20
2017-08-18T12:07:44.933Z,79.80
2017-08-18T12:10:12.551Z,80.10
2017-08-18T12:12:40.050Z,78.80
2017-08-18T12:15:07.784Z,79.50
2017-08-18T12:17:35.331Z,78.60
2017-08-18T12:20:02.789Z,77.90
2017-08-18T12:22:30.300Z,77.50
2017-08-18T12:24:57.857Z,77.40
2017-08-18T12:27:25.442Z,75.10
2017-08-18T12:29:53.027Z,74.30
2017-08-18T12:32:20.542Z,75.00
2017-08-18T12:34:48.104Z,74.10
2017-08-18T12:37:15.781Z,75.10
2017-08-18T12:39:43.314Z,75.10
2017-08-18T12:42:11.702Z,76.70
2017-08-18T12:44:39.255Z,76.50
2017-08-18T12:47:06.736Z,76.20
2017-08-18T12:49:34.187Z,75.00
2017-08-18T12:52:01.781Z,75.50
2017-08-18T12:54:29.305Z,76.60
2017-08-18T12:56:56.844Z,78.30
2017-08-18T12:59:24.320Z,78.80
2017-08-18T13:01:51.830Z,79.80
2017-08-18T13:04:19.415Z,78.90
2017-08-18T13:06:47.709Z,78.90
2017-08-18T13:09:15.516Z,78.90
2017-08-18T13:11:43.028Z,79.60
2017-08-18T13:14:10.599Z,77.10
2017-08-18T13:16:38.247Z,76.30
2017-08-18T13:19:05.819Z,76.80
2017-08-18T13:21:33.373Z,76.10
2017-08-18T13:24:01.120Z,70.50
2017-08-18T13:26:28.674Z,70.40
2017-08-18T13:28:56.216Z,73.10
2017-08-18T13:31:23.712Z,71.60
2017-08-18T13:33:51.767Z,69.90
2017-08-18T13:36:19.334Z,67.30
2017-08-18T13:38:46.802Z,68.60
2017-08-18T13:41:14.383Z,68.00
2017-08-18T13:43:42.027Z,68.70
2017-08-18T13:46:10.626Z,69.90
2017-08-18T13:48:38.147Z,71.30
2017-08-18T13:51:05.608Z,71.40
2017-08-18T13:53:33.380Z,70.90
2017-08-18T13:56:00.846Z,72.10
2017-08-18T13:58:28.345Z,72.60
2017-08-18T14:00:55.813Z,71.60
2017-08-18T14:03:23.335Z,72.10
2017-08-18T14:05:50.898Z,72.40
2017-08-18T14:08:18.386Z,73.40
2017-08-18T14:10:45.891Z,74.10
2017-08-18T14:13:14.223Z,74.70
2017-08-18T14:15:41.734Z,75.20
2017-08-18T14:18:09.344Z,75.20
2017-08-18T14:20:36.841Z,74.60
2017-08-18T14:23:04.414Z,75.90
2017-08-18T14:25:37.624Z,75.10
2017-08-18T14:28:05.173Z,76.00
2017-08-18T14:30:32.744Z,76.60
2017-08-18T14:33:00.281Z,76.80
2017-08-18T14:35:27.785Z,77.10
2017-08-18T14:37:55.282Z,78.30
2017-08-18T14:40:23.524Z,77.90
2017-08-18T14:42:51.016Z,77.80
2017-08-18T14:45:18.650Z,78.90
2017-08-18T14:50:23.030Z,79.70
2017-08-18T14:52:51.743Z,80.00
2017-08-18T14:55:19.650Z,79.80
2017-08-18T14:57:47.481Z,82.20
2017-08-18T15:00:14.955Z,82.40
2017-08-18T15:02:42.517Z,81.70
2017-08-18T15:05:10.052Z,80.70
2017-08-18T15:07:37.589Z,81.00
2017-08-18T15:10:05.169Z,80.90
2017-08-18T15:12:32.647Z,81.80
2017-08-18T15:15:00.159Z,82.10
2017-08-18T15:17:27.743Z,81.50
2017-08-18T15:19:55.227Z,82.00
2017-08-18T15:22:22.735Z,81.60
2017-08-18T15:24:51.007Z,81.80
2017-08-18T15:27:18.527Z,82.20
2017-08-18T15:29:46.031Z,82.80
2017-08-18T15:32:13.607Z,83.40
2017-08-18T15:34:41.855Z,84.30
2017-08-18T15:37:10.572Z,84.20
2017-08-18T15:39:38.048Z,86.00
2017-08-18T15:42:05.536Z,86.40
2017-08-18T15:44:34.248Z,86.10
2017-08-18T15:47:01.750Z,86.60
2017-08-18T15:49:29.246Z,87.50
2017-08-18T15:51:56.863Z,86.70
2017-08-18T15:54:24.341Z,85.90
2017-08-18T15:56:51.910Z,85.10
2017-08-18T15:59:19.423Z,84.20
2017-08-18T16:01:46.939Z,85.70
2017-08-18T16:04:14.483Z,85.50
2017-08-18T16:06:41.993Z,85.90
2017-08-18T16:09:09.484Z,84.50
2017-08-18T16:11:37.026Z,84.60
2017-08-18T16:14:04.800Z,86.80
2017-08-18T16:16:32.523Z,87.20
2017-08-18T16:19:00.005Z,86.90
2017-08-18T16:21:28.329Z,86.30
2017-08-18T16:23:55.870Z,86.30
2017-08-18T16:26:23.417Z,86.70
2017-08-18T16:28:50.911Z,85.40
2017-08-18T16:31:18.487Z,86.20
2017-08-18T16:33:45.950Z,86.20
2017-08-18T16:36:13.551Z,85.60
2017-08-18T16:38:40.996Z,85.10
2017-08-18T16:41:09.291Z,86.00
2017-08-18T16:43:36.936Z,86.00
2017-08-18T16:46:04.565Z,85.10
2017-08-18T16:48:32.198Z,84.80
2017-08-18T16:50:59.716Z,85.00
2017-08-18T16:53:27.555Z,84.80
2017-08-18T16:55:55.116Z,85.30
2017-08-18T16:58:23.673Z,85.00
2017-08-18T17:00:51.161Z,85.20
2017-08-18T17:03:19.120Z,84.20
2017-08-18T17:05:46.580Z,85.50
2017-08-18T17:08:14.087Z,84.50
2017-08-18T17:10:41.606Z,84.30
2017-08-18T17:13:09.347Z,84.20
2017-08-18T17:15:37.035Z,83.60
2017-08-18T17:18:04.561Z,84.20
2017-08-18T17:20:32.039Z,84.40
2017-08-18T17:22:59.548Z,84.20
2017-08-18T17:25:27.035Z,84.60
2017-08-18T17:27:54.571Z,83.50
2017-08-18T17:30:22.112Z,85.60
2017-08-18T17:32:49.579Z,85.00
2017-08-18T17:35:18.088Z,85.30
2017-08-18T17:37:45.552Z,84.90
2017-08-18T17:40:13.171Z,84.20
2017-08-18T17:42:40.716Z,84.70
2017-08-18T17:45:08.239Z,84.40
2017-08-18T17:47:35.809Z,84.90
2017-08-18T17:50:03.670Z,85.50
2017-08-18T17:52:31.141Z,84.60
2017-08-18T17:54:58.691Z,85.30
2017-08-18T17:57:26.291Z,85.00
2017-08-18T17:59:53.818Z,84.70
2017-08-18T18:02:21.462Z,85.20
2017-08-18T18:04:48.907Z,84.50
2017-08-18T18:07:16.630Z,84.30
2017-08-18T18:09:44.142Z,84.60
2017-08-18T18:12:11.645Z,84.30
2017-08-18T18:14:39.244Z,85.10
2017-08-18T18:17:06.816Z,84.20
2017-08-18T18:19:34.554Z,84.90
2017-08-18T18:22:02.033Z,85.70
2017-08-18T18:24:29.493Z,86.30
2017-08-18T18:26:57.445Z,85.10
2017-08-18T18:29:25.068Z,86.20
2017-08-18T18:31:52.611Z,85.20
2017-08-18T18:34:20.221Z,84.80
2017-08-18T18:36:47.755Z,85.20
2017-08-18T18:39:15.256Z,85.60
2017-08-18T18:41:42.754Z,85.70
2017-08-18T18:44:11.306Z,86.10
2017-08-18T18:46:38.877Z,86.30
2017-08-18T18:49:06.408Z,86.60
2017-08-18T18:51:33.964Z,86.60
2017-08-18T18:54:02.173Z,86.70
2017-08-18T18:56:30.014Z,86.50
2017-08-18T18:58:57.528Z,86.20
2017-08-18T19:01:25.918Z,86.70
2017-08-18T19:03:53.730Z,86.50
2017-08-18T19:06:21.235Z,86.70
2017-08-18T19:08:48.722Z,86.70
2017-08-18T19:11:16.361Z,86.80
2017-08-18T19:13:44.412Z,86.40
2017-08-18T19:16:12.287Z,86.20
2017-08-18T19:18:39.791Z,86.50
2017-08-18T19:21:08.919Z,86.30
2017-08-18T19:23:36.380Z,86.70
2017-08-18T19:26:04.013Z,86.60
2017-08-18T19:28:31.575Z,86.50
2017-08-18T19:30:59.065Z,87.00
2017-08-18T19:33:26.889Z,86.70
2017-08-18T19:35:54.411Z,87.00
2017-08-18T19:38:22.017Z,87.20
2017-08-18T19:40:49.611Z,87.20
2017-08-18T19:43:17.189Z,87.20
2017-08-18T19:45:44.799Z,87.40
2017-08-18T19:48:12.339Z,87.50
2017-08-18T19:50:39.821Z,87.70
2017-08-18T19:53:07.769Z,87.70
2017-08-18T19:55:36.215Z,87.70
2017-08-18T19:58:03.911Z,88.20
2017-08-18T20:00:31.433Z,87.80
2017-08-18T20:02:59.028Z,88.50
2017-08-18T20:05:26.485Z,88.10
2017-08-18T20:07:54.004Z,88.20
2017-08-18T20:10:21.780Z,88.30
2017-08-18T20:12:49.269Z,88.60
2017-08-18T20:15:16.808Z,88.90
2017-08-18T20:17:44.364Z,89.10
2017-08-18T20:20:11.871Z,89.30
2017-08-18T20:22:39.372Z,89.70
2017-08-18T20:25:06.934Z,89.60
2017-08-18T20:27:34.436Z,90.00
2017-08-18T20:30:01.981Z,89.30
2017-08-18T20:32:29.788Z,88.90
2017-08-18T20:34:57.254Z,88.50
2017-08-18T20:37:24.768Z,80.70
2017-08-18T20:39:52.295Z,81.80
2017-08-18T20:42:20.705Z,85.30
2017-08-18T20:44:48.235Z,85.80
2017-08-18T20:47:15.723Z,87.50
2017-08-18T20:49:43.254Z,88.40
2017-08-18T20:52:10.966Z,89.60
2017-08-18T20:54:38.471Z,90.40
2017-08-18T20:57:06.203Z,90.40
2017-08-18T20:59:33.792Z,90.40
2017-08-18T21:02:01.794Z,90.40
2017-08-18T21:04:29.426Z,90.40
2017-08-18T21:06:57.510Z,90.20
2017-08-18T21:09:25.172Z,91.10
2017-08-18T21:11:53.169Z,90.90
2017-08-18T21:14:20.804Z,90.60
2017-08-18T21:16:48.594Z,90.50
2017-08-18T21:19:16.153Z,90.50
2017-08-18T21:21:43.661Z,90.70
2017-08-18T21:24:11.337Z,90.90
2017-08-18T21:26:39.196Z,91.30
2017-08-18T21:29:06.700Z,90.90
2017-08-18T21:31:34.366Z,90.90
2017-08-18T21:34:01.872Z,91.00
2017-08-18T21:36:29.383Z,91.20
2017-08-18T21:38:56.971Z,91.00
2017-08-18T21:41:24.465Z,90.90
2017-08-18T21:43:51.907Z,90.90
2017-08-18T21:46:19.417Z,90.90
2017-08-18T21:48:46.925Z,90.90
2017-08-18T21:51:14.432Z,90.90
2017-08-18T21:53:42.002Z,90.60
2017-08-18T21:56:10.427Z,90.60
2017-08-18T21:58:37.982Z,91.00
2017-08-18T22:01:05.520Z,91.00
2017-08-18T22:03:32.995Z,90.70
2017-08-18T22:06:00.511Z,91.10
2017-08-18T22:08:28.056Z,91.30
2017-08-18T22:10:55.487Z,91.10
2017-08-18T22:13:22.988Z,91.40
2017-08-18T22:15:50.458Z,91.80
2017-08-18T22:18:18.155Z,91.70
2017-08-18T22:20:45.803Z,92.00
2017-08-18T22:23:13.358Z,92.10
2017-08-18T22:25:40.937Z,92.10
2017-08-18T22:28:08.416Z,92.20
2017-08-18T22:30:35.979Z,92.00
2017-08-18T22:33:03.909Z,92.30
2017-08-18T22:35:31.381Z,92.20
2017-08-18T22:37:58.843Z,92.10
2017-08-18T22:40:26.402Z,91.90
2017-08-18T22:42:53.916Z,91.80
2017-08-18T22:45:21.417Z,91.80
2017-08-18T22:47:49.025Z,91.80
2017-08-18T22:50:16.583Z,91.80
2017-08-18T22:52:44.110Z,91.50
2017-08-18T22:55:11.730Z,91.30
2017-08-18T22:57:39.520Z,91.30
2017-08-18T23:00:07.955Z,91.00
2017-08-18T23:02:35.419Z,91.00
2017-08-18T23:05:03.032Z,90.80
2017-08-18T23:07:30.595Z,91.00
2017-08-18T23:09:58.210Z,91.10
2017-08-18T23:12:25.831Z,90.90
2017-08-18T23:14:53.400Z,90.80
2017-08-18T23:17:20.924Z,91.10
2017-08-18T23:19:48.404Z,90.90
2017-08-18T23:22:16.041Z,90.80
2017-08-18T23:24:43.525Z,90.90
2017-08-18T23:27:11.082Z,91.00
2017-08-18T23:29:38.597Z,91.00
2017-08-18T23:32:06.162Z,91.00
2017-08-18T23:34:33.639Z,90.80
2017-08-18T23:37:01.208Z,91.00
2017-08-18T23:39:28.778Z,90.70
2017-08-18T23:41:56.393Z,91.20
2017-08-18T23:44:23.949Z,91.10
2017-08-18T23:46:51.438Z,90.80
2017-08-18T23:49:19.021Z,91.00
2017-08-18T23:51:46.783Z,90.70
2017-08-18T23:54:14.294Z,90.80
2017-08-18T23:56:41.749Z,90.90
2017-08-18T23:59:09.269Z,91.10
